createdAt,value
2017-10-17T00:00:01.869Z,0
2017-10-17T00:00:42.432Z,0
2017-10-17T00:01:22.940Z,0
2017-10-17T00:02:03.531Z,0
2017-10-17T00:02:44.087Z,0
2017-10-17T00:03:24.716Z,0
2017-10-17T00:04:05.346Z,0
2017-10-17T00:04:45.912Z,0
2017-10-17T00:05:26.549Z,0
2017-10-17T00:06:07.030Z,0
2017-10-17T00:06:47.561Z,0
2017-10-17T00:07:28.147Z,0
2017-10-17T00:08:08.705Z,0
2017-10-17T00:08:49.323Z,0
2017-10-17T00:09:29.871Z,0
2017-10-17T00:10:10.458Z,0
2017-10-17T00:10:50.954Z,0
2017-10-17T00:11:31.515Z,0
2017-10-17T00:12:12.010Z,0
2017-10-17T00:12:52.571Z,0
2017-10-17T00:13:33.119Z,0
2017-10-17T00:14:13.664Z,0
2017-10-17T00:14:54.222Z,0
2017-10-17T00:15:34.785Z,0
2017-10-17T00:16:15.353Z,0
2017-10-17T00:16:55.868Z,0
2017-10-17T00:17:36.459Z,0
2017-10-17T00:18:16.985Z,0
2017-10-17T00:18:57.536Z,0
2017-10-17T00:19:38.067Z,0
2017-10-17T00:20:18.587Z,0
2017-10-17T00:20:59.182Z,0
2017-10-17T00:21:39.703Z,0
2017-10-17T00:22:20.337Z,0
2017-10-17T00:23:00.907Z,0
2017-10-17T00:23:41.637Z,0
2017-10-17T00:24:22.244Z,0
2017-10-17T00:25:02.816Z,0
2017-10-17T00:25:43.301Z,0
2017-10-17T00:26:23.893Z,0
2017-10-17T00:27:04.399Z,0
2017-10-17T00:27:44.922Z,0
2017-10-17T00:28:25.508Z,0
2017-10-17T00:29:06.293Z,0
2017-10-17T00:29:46.818Z,0
2017-10-17T00:30:27.379Z,0
2017-10-17T00:31:07.874Z,0
2017-10-17T00:31:48.446Z,0
2017-10-17T00:32:28.986Z,0
2017-10-17T00:33:09.615Z,0
2017-10-17T00:33:50.144Z,0
2017-10-17T00:34:30.670Z,0
2017-10-17T00:35:11.445Z,0
2017-10-17T00:35:52.075Z,0
2017-10-17T00:36:32.605Z,0
2017-10-17T00:37:13.119Z,0
2017-10-17T00:37:53.683Z,0
2017-10-17T00:38:34.236Z,0
2017-10-17T00:39:14.748Z,0
2017-10-17T00:39:55.376Z,0
2017-10-17T00:40:35.911Z,0
2017-10-17T00:41:16.456Z,0
2017-10-17T00:41:57.146Z,0
2017-10-17T00:42:37.657Z,0
2017-10-17T00:43:18.236Z,0
2017-10-17T00:43:58.816Z,0
2017-10-17T00:44:39.375Z,0
2017-10-17T00:45:19.909Z,0
2017-10-17T00:46:00.436Z,0
2017-10-17T00:46:40.963Z,0
2017-10-17T00:47:21.515Z,0
2017-10-17T00:48:02.087Z,0
2017-10-17T00:48:42.613Z,0
2017-10-17T00:49:23.162Z,0
2017-10-17T00:50:03.681Z,0
2017-10-17T00:50:44.226Z,0
2017-10-17T00:51:24.792Z,0
2017-10-17T00:52:05.328Z,0
2017-10-17T00:52:45.841Z,0
2017-10-17T00:53:26.396Z,0
2017-10-17T00:54:06.998Z,0
2017-10-17T00:54:47.705Z,0
2017-10-17T00:55:28.280Z,0
2017-10-17T00:56:08.886Z,0
2017-10-17T00:56:49.442Z,0
2017-10-17T00:57:29.984Z,0
2017-10-17T00:58:11.080Z,0
2017-10-17T00:58:51.635Z,0
2017-10-17T00:59:32.095Z,0
2017-10-17T01:00:12.696Z,0
2017-10-17T01:00:53.277Z,0
2017-10-17T01:01:33.829Z,0
2017-10-17T01:02:14.365Z,0
2017-10-17T01:02:54.916Z,0
2017-10-17T01:03:35.440Z,0
2017-10-17T01:04:15.964Z,0
2017-10-17T01:04:56.496Z,0
2017-10-17T01:05:37.030Z,0
2017-10-17T01:06:17.566Z,0
2017-10-17T01:06:58.135Z,0
2017-10-17T01:07:38.710Z,0
2017-10-17T01:08:19.239Z,0
2017-10-17T01:08:59.786Z,0
2017-10-17T01:09:40.383Z,0
2017-10-17T01:10:20.912Z,0
2017-10-17T01:11:01.440Z,0
2017-10-17T01:11:41.957Z,0
2017-10-17T01:12:22.567Z,0
2017-10-17T01:13:03.161Z,0
2017-10-17T01:13:43.739Z,0
2017-10-17T01:14:24.198Z,0
2017-10-17T01:15:04.774Z,0
2017-10-17T01:15:45.292Z,0
2017-10-17T01:16:25.859Z,0
2017-10-17T01:17:06.472Z,0
2017-10-17T01:17:46.967Z,0
2017-10-17T01:18:27.584Z,0
2017-10-17T01:19:08.107Z,0
2017-10-17T01:19:48.733Z,0
2017-10-17T01:20:29.277Z,0
2017-10-17T01:21:09.797Z,0
2017-10-17T01:21:50.363Z,0
2017-10-17T01:22:30.938Z,0
2017-10-17T01:23:11.481Z,0
2017-10-17T01:23:52.004Z,0
2017-10-17T01:24:33.126Z,0
2017-10-17T01:25:13.760Z,0
2017-10-17T01:25:54.307Z,0
2017-10-17T01:26:34.911Z,0
2017-10-17T01:27:15.404Z,0
2017-10-17T01:27:55.998Z,0
2017-10-17T01:28:36.527Z,0
2017-10-17T01:29:17.023Z,0
2017-10-17T01:29:57.570Z,0
2017-10-17T01:30:38.125Z,0
2017-10-17T01:31:18.609Z,0
2017-10-17T01:31:59.176Z,0
2017-10-17T01:32:39.777Z,0
2017-10-17T01:33:20.338Z,0
2017-10-17T01:34:01.128Z,0
2017-10-17T01:34:41.643Z,0
2017-10-17T01:35:22.228Z,0
2017-10-17T01:36:02.760Z,0
2017-10-17T01:36:43.314Z,0
2017-10-17T01:37:23.871Z,0
2017-10-17T01:38:04.408Z,0
2017-10-17T01:38:44.943Z,0
2017-10-17T01:39:25.463Z,0
2017-10-17T01:40:06.050Z,0
2017-10-17T01:40:46.570Z,0
2017-10-17T01:41:27.061Z,0
2017-10-17T01:42:07.593Z,0
2017-10-17T01:42:48.111Z,0
2017-10-17T01:43:28.694Z,0
2017-10-17T01:44:09.200Z,0
2017-10-17T01:44:49.770Z,0
2017-10-17T01:45:30.303Z,0
2017-10-17T01:46:10.844Z,0
2017-10-17T01:46:51.381Z,0
2017-10-17T01:47:31.931Z,0
2017-10-17T01:48:12.448Z,0
2017-10-17T01:48:52.972Z,0
2017-10-17T01:49:33.526Z,0
2017-10-17T01:50:14.082Z,0
2017-10-17T01:50:55.330Z,0
2017-10-17T01:51:35.292Z,0
2017-10-17T01:52:15.838Z,0
2017-10-17T01:52:56.338Z,0
2017-10-17T01:53:36.908Z,0
2017-10-17T01:54:17.418Z,0
2017-10-17T01:54:57.935Z,0
2017-10-17T01:55:38.537Z,0
2017-10-17T01:56:19.021Z,0
2017-10-17T01:56:59.565Z,0
2017-10-17T01:57:40.142Z,0
2017-10-17T01:58:20.647Z,0
2017-10-17T01:59:01.210Z,0
2017-10-17T01:59:41.806Z,0
2017-10-17T02:00:22.312Z,0
2017-10-17T02:01:02.881Z,0
2017-10-17T02:01:43.407Z,0
2017-10-17T02:02:24.031Z,0
2017-10-17T02:03:04.567Z,0
2017-10-17T02:03:45.104Z,0
2017-10-17T02:04:25.736Z,0
2017-10-17T02:05:06.324Z,0
2017-10-17T02:05:46.878Z,0
2017-10-17T02:06:27.574Z,0
2017-10-17T02:07:08.087Z,0
2017-10-17T02:07:48.588Z,0
2017-10-17T02:08:29.240Z,0
2017-10-17T02:09:09.760Z,0
2017-10-17T02:09:50.243Z,0
2017-10-17T02:10:30.940Z,0
2017-10-17T02:11:11.515Z,0
2017-10-17T02:11:52.107Z,0
2017-10-17T02:12:32.579Z,0
2017-10-17T02:13:13.142Z,0
2017-10-17T02:13:53.668Z,0
2017-10-17T02:14:34.214Z,0
2017-10-17T02:15:14.776Z,0
2017-10-17T02:15:55.302Z,0
2017-10-17T02:16:35.850Z,0
2017-10-17T02:17:16.412Z,0
2017-10-17T02:17:56.930Z,0
2017-10-17T02:18:37.451Z,0
2017-10-17T02:19:18.002Z,0
2017-10-17T02:19:58.541Z,0
2017-10-17T02:20:39.081Z,0
2017-10-17T02:21:19.651Z,0
2017-10-17T02:22:00.195Z,0
2017-10-17T02:22:40.734Z,0
2017-10-17T02:23:21.282Z,0
2017-10-17T02:24:01.834Z,0
2017-10-17T02:24:42.379Z,0
2017-10-17T02:25:22.967Z,0
2017-10-17T02:26:03.498Z,0
2017-10-17T02:26:44.036Z,0
2017-10-17T02:27:24.539Z,0
2017-10-17T02:28:05.083Z,0
2017-10-17T02:28:45.586Z,0
2017-10-17T02:29:26.154Z,0
2017-10-17T02:30:06.701Z,0
2017-10-17T02:30:47.235Z,0
2017-10-17T02:31:27.752Z,0
2017-10-17T02:32:08.275Z,0
2017-10-17T02:32:48.822Z,0
2017-10-17T02:33:29.440Z,0
2017-10-17T02:34:09.944Z,0
2017-10-17T02:34:50.471Z,0
2017-10-17T02:35:30.950Z,0
2017-10-17T02:36:11.503Z,0
2017-10-17T02:36:52.045Z,0
2017-10-17T02:37:32.637Z,0
2017-10-17T02:38:13.133Z,0
2017-10-17T02:38:53.687Z,0
2017-10-17T02:39:34.222Z,0
2017-10-17T02:40:14.769Z,0
2017-10-17T02:40:55.308Z,0
2017-10-17T02:41:35.877Z,0
2017-10-17T02:42:16.424Z,0
2017-10-17T02:42:57.128Z,0
2017-10-17T02:43:37.479Z,0
2017-10-17T02:44:18.085Z,0
2017-10-17T02:44:58.638Z,0
2017-10-17T02:45:39.169Z,0
2017-10-17T02:46:19.640Z,0
2017-10-17T02:47:00.216Z,0
2017-10-17T02:47:40.756Z,0
2017-10-17T02:48:21.302Z,0
2017-10-17T02:49:01.851Z,0
2017-10-17T02:49:42.433Z,0
2017-10-17T02:50:22.949Z,0
2017-10-17T02:51:03.510Z,0
2017-10-17T02:51:44.076Z,0
2017-10-17T02:52:24.626Z,0
2017-10-17T02:53:05.150Z,0
2017-10-17T02:53:45.710Z,0
2017-10-17T02:54:26.250Z,0
2017-10-17T02:55:06.787Z,0
2017-10-17T02:55:47.326Z,0
2017-10-17T02:56:27.797Z,0
2017-10-17T02:57:08.370Z,0
2017-10-17T02:57:48.911Z,0
2017-10-17T02:58:29.507Z,0
2017-10-17T02:59:10.023Z,0
2017-10-17T02:59:50.524Z,0
2017-10-17T03:00:31.052Z,0
2017-10-17T03:01:11.658Z,0
2017-10-17T03:01:52.178Z,0
2017-10-17T03:02:32.723Z,0
2017-10-17T03:03:13.286Z,0
2017-10-17T03:03:53.851Z,0
2017-10-17T03:04:34.384Z,0
2017-10-17T03:05:14.923Z,0
2017-10-17T03:05:55.410Z,0
2017-10-17T03:06:35.959Z,0
2017-10-17T03:07:16.507Z,0
2017-10-17T03:07:57.021Z,0
2017-10-17T03:08:37.544Z,0
2017-10-17T03:09:18.140Z,0
2017-10-17T03:09:58.610Z,0
2017-10-17T03:10:39.179Z,0
2017-10-17T03:11:19.714Z,0
2017-10-17T03:12:00.238Z,0
2017-10-17T03:12:40.767Z,0
2017-10-17T03:13:21.291Z,0
2017-10-17T03:14:01.866Z,0
2017-10-17T03:14:42.419Z,0
2017-10-17T03:15:22.976Z,0
2017-10-17T03:16:03.490Z,0
2017-10-17T03:16:44.006Z,0
2017-10-17T03:17:24.504Z,0
2017-10-17T03:18:05.059Z,0
2017-10-17T03:18:45.596Z,0
2017-10-17T03:19:26.110Z,0
2017-10-17T03:20:06.707Z,0
2017-10-17T03:20:47.259Z,0
2017-10-17T03:21:27.811Z,0
2017-10-17T03:22:08.338Z,0
2017-10-17T03:22:48.960Z,0
2017-10-17T03:23:29.432Z,0
2017-10-17T03:24:09.971Z,0
2017-10-17T03:24:50.513Z,0
2017-10-17T03:25:31.061Z,0
2017-10-17T03:26:11.574Z,0
2017-10-17T03:26:52.150Z,0
2017-10-17T03:27:32.671Z,0
2017-10-17T03:28:13.262Z,0
2017-10-17T03:28:53.805Z,0
2017-10-17T03:29:34.313Z,0
2017-10-17T03:30:14.878Z,0
2017-10-17T03:30:55.415Z,0
2017-10-17T03:31:36.004Z,0
2017-10-17T03:32:16.549Z,0
2017-10-17T03:32:57.042Z,0
2017-10-17T03:33:37.592Z,0
2017-10-17T03:34:18.186Z,0
2017-10-17T03:34:58.652Z,0
2017-10-17T03:35:39.268Z,0
2017-10-17T03:36:19.895Z,0
2017-10-17T03:37:00.471Z,0
2017-10-17T03:37:40.996Z,0
2017-10-17T03:38:21.584Z,0
2017-10-17T03:39:02.104Z,0
2017-10-17T03:39:42.630Z,0
2017-10-17T03:40:23.149Z,0
2017-10-17T03:41:03.709Z,0
2017-10-17T03:41:44.256Z,0
2017-10-17T03:42:24.788Z,0
2017-10-17T03:43:05.385Z,0
2017-10-17T03:43:45.936Z,0
2017-10-17T03:44:26.459Z,0
2017-10-17T03:45:07.013Z,0
2017-10-17T03:45:47.485Z,0
2017-10-17T03:46:28.074Z,0
2017-10-17T03:47:08.588Z,0
2017-10-17T03:47:49.161Z,0
2017-10-17T03:48:29.690Z,0
2017-10-17T03:49:10.236Z,0
2017-10-17T03:49:50.781Z,0
2017-10-17T03:50:31.308Z,0
2017-10-17T03:51:11.875Z,0
2017-10-17T03:51:52.353Z,0
2017-10-17T03:52:32.911Z,0
2017-10-17T03:53:13.425Z,0
2017-10-17T03:53:53.991Z,0
2017-10-17T03:54:34.506Z,0
2017-10-17T03:55:15.032Z,0
2017-10-17T03:55:55.721Z,0
2017-10-17T03:56:36.255Z,0
2017-10-17T03:57:16.799Z,0
2017-10-17T03:57:57.358Z,0
2017-10-17T03:58:38.055Z,0
2017-10-17T03:59:18.426Z,0
2017-10-17T03:59:59.003Z,0
2017-10-17T04:00:39.584Z,0
2017-10-17T04:01:20.105Z,0
2017-10-17T04:02:00.699Z,0
2017-10-17T04:02:41.250Z,0
2017-10-17T04:03:21.768Z,0
2017-10-17T04:04:02.269Z,0
2017-10-17T04:04:42.778Z,0
2017-10-17T04:05:23.350Z,0
2017-10-17T04:06:03.932Z,0
2017-10-17T04:06:44.480Z,0
2017-10-17T04:07:24.996Z,0
2017-10-17T04:08:05.529Z,0
2017-10-17T04:08:46.110Z,0
2017-10-17T04:09:26.646Z,0
2017-10-17T04:10:07.233Z,0
2017-10-17T04:10:47.809Z,0
2017-10-17T04:11:28.335Z,0
2017-10-17T04:12:08.883Z,0
2017-10-17T04:12:49.362Z,0
2017-10-17T04:13:29.933Z,0
2017-10-17T04:14:10.472Z,0
2017-10-17T04:14:51.003Z,0
2017-10-17T04:15:31.694Z,0
2017-10-17T04:16:12.222Z,0
2017-10-17T04:16:52.752Z,0
2017-10-17T04:17:33.282Z,0
2017-10-17T04:18:13.871Z,0
2017-10-17T04:18:54.374Z,0
2017-10-17T04:19:34.939Z,0
2017-10-17T04:20:15.442Z,0
2017-10-17T04:20:55.995Z,0
2017-10-17T04:21:36.528Z,0
2017-10-17T04:22:17.093Z,0
2017-10-17T04:22:57.626Z,0
2017-10-17T04:23:38.161Z,0
2017-10-17T04:24:18.647Z,0
2017-10-17T04:24:59.191Z,0
2017-10-17T04:25:39.755Z,0
2017-10-17T04:26:20.307Z,0
2017-10-17T04:27:00.838Z,0
2017-10-17T04:27:41.421Z,0
2017-10-17T04:28:21.950Z,0
2017-10-17T04:29:02.504Z,0
2017-10-17T04:29:43.089Z,0
2017-10-17T04:30:23.621Z,0
2017-10-17T04:31:04.136Z,0
2017-10-17T04:31:44.687Z,0
2017-10-17T04:32:25.242Z,0
2017-10-17T04:33:05.854Z,0
2017-10-17T04:33:46.421Z,0
2017-10-17T04:34:26.926Z,0
2017-10-17T04:35:07.452Z,0
2017-10-17T04:35:48.052Z,0
2017-10-17T04:36:28.605Z,0
2017-10-17T04:37:09.151Z,0
2017-10-17T04:37:49.652Z,0
2017-10-17T04:38:30.168Z,0
2017-10-17T04:39:10.722Z,0
2017-10-17T04:39:51.273Z,0
2017-10-17T04:40:31.936Z,0
2017-10-17T04:41:12.513Z,0
2017-10-17T04:41:53.057Z,0
2017-10-17T04:42:33.605Z,0
2017-10-17T04:43:14.139Z,0
2017-10-17T04:43:54.633Z,0
2017-10-17T04:44:35.219Z,0
2017-10-17T04:45:15.755Z,0
2017-10-17T04:45:56.288Z,0
2017-10-17T04:46:36.842Z,0
2017-10-17T04:47:17.383Z,0
2017-10-17T04:47:58.179Z,0
2017-10-17T04:48:38.747Z,0
2017-10-17T04:49:19.272Z,0
2017-10-17T04:49:59.780Z,0
2017-10-17T04:50:40.348Z,0
2017-10-17T04:51:20.871Z,0
2017-10-17T04:52:01.403Z,0
2017-10-17T04:52:41.933Z,0
2017-10-17T04:53:22.512Z,0
2017-10-17T04:54:03.071Z,0
2017-10-17T04:54:43.627Z,0
2017-10-17T04:55:24.152Z,0
2017-10-17T04:56:04.779Z,0
2017-10-17T04:56:45.312Z,0
2017-10-17T04:57:25.864Z,0
2017-10-17T04:58:06.413Z,0
2017-10-17T04:58:46.925Z,0
2017-10-17T04:59:27.484Z,0
2017-10-17T05:00:08.033Z,0
2017-10-17T05:00:48.587Z,0
2017-10-17T05:01:29.158Z,0
2017-10-17T05:02:09.989Z,0
2017-10-17T05:02:51.409Z,0
2017-10-17T05:03:31.061Z,0
2017-10-17T05:04:12.217Z,0
2017-10-17T05:04:52.784Z,0
2017-10-17T05:05:33.320Z,0
2017-10-17T05:06:13.902Z,0
2017-10-17T05:06:54.442Z,0
2017-10-17T05:07:34.967Z,0
2017-10-17T05:08:15.530Z,0
2017-10-17T05:08:56.074Z,0
2017-10-17T05:09:36.612Z,0
2017-10-17T05:10:17.156Z,0
2017-10-17T05:10:57.766Z,0
2017-10-17T05:11:38.279Z,0
2017-10-17T05:12:18.914Z,0
2017-10-17T05:12:59.385Z,0
2017-10-17T05:13:40.007Z,0
2017-10-17T05:14:20.487Z,0
2017-10-17T05:15:01.058Z,0
2017-10-17T05:15:41.566Z,0
2017-10-17T05:16:22.126Z,0
2017-10-17T05:17:02.634Z,0
2017-10-17T05:17:43.224Z,0
2017-10-17T05:18:23.753Z,0
2017-10-17T05:19:04.290Z,0
2017-10-17T05:19:45.410Z,0
2017-10-17T05:20:25.400Z,0
2017-10-17T05:21:05.925Z,0
2017-10-17T05:21:46.450Z,0
2017-10-17T05:22:26.984Z,4
2017-10-17T05:23:07.556Z,4
2017-10-17T05:23:48.107Z,4
2017-10-17T05:24:28.622Z,0
2017-10-17T05:25:09.193Z,0
2017-10-17T05:25:49.855Z,4
2017-10-17T05:26:30.256Z,4
2017-10-17T05:27:10.851Z,0
2017-10-17T05:27:51.407Z,4
2017-10-17T05:28:31.898Z,4
2017-10-17T05:29:12.489Z,4
2017-10-17T05:29:52.984Z,4
2017-10-17T05:30:33.524Z,4
2017-10-17T05:31:14.081Z,8
2017-10-17T05:31:54.674Z,4
2017-10-17T05:32:35.215Z,8
2017-10-17T05:33:15.717Z,8
2017-10-17T05:33:56.276Z,8
2017-10-17T05:34:36.824Z,12
2017-10-17T05:35:17.331Z,12
2017-10-17T05:35:57.960Z,12
2017-10-17T05:36:38.498Z,12
2017-10-17T05:37:19.918Z,12
2017-10-17T05:37:59.595Z,16
2017-10-17T05:38:40.116Z,16
2017-10-17T05:39:20.687Z,20
2017-10-17T05:40:01.204Z,20
2017-10-17T05:40:41.722Z,24
2017-10-17T05:41:22.284Z,24
2017-10-17T05:42:02.894Z,28
2017-10-17T05:42:43.433Z,28
2017-10-17T05:43:23.996Z,28
2017-10-17T05:44:04.546Z,32
2017-10-17T05:44:45.110Z,32
2017-10-17T05:45:25.671Z,40
2017-10-17T05:46:06.234Z,44
2017-10-17T05:46:46.735Z,44
2017-10-17T05:47:27.446Z,48
2017-10-17T05:48:07.866Z,48
2017-10-17T05:48:48.400Z,56
2017-10-17T05:49:29.004Z,56
2017-10-17T05:50:09.610Z,60
2017-10-17T05:50:50.121Z,64
2017-10-17T05:51:30.630Z,68
2017-10-17T05:52:11.227Z,72
2017-10-17T05:52:51.731Z,76
2017-10-17T05:53:32.261Z,80
2017-10-17T05:54:12.752Z,84
2017-10-17T05:54:53.357Z,88
2017-10-17T05:55:33.883Z,96
2017-10-17T05:56:14.404Z,100
2017-10-17T05:56:55.460Z,104
2017-10-17T05:57:35.926Z,108
2017-10-17T05:58:16.508Z,112
2017-10-17T05:58:57.075Z,116
2017-10-17T05:59:37.537Z,124
2017-10-17T06:00:18.078Z,128
2017-10-17T06:00:58.594Z,132
2017-10-17T06:01:39.165Z,136
2017-10-17T06:02:19.705Z,144
2017-10-17T06:03:00.188Z,144
2017-10-17T06:03:40.760Z,152
2017-10-17T06:04:21.303Z,156
2017-10-17T06:05:01.859Z,164
2017-10-17T06:05:42.603Z,168
2017-10-17T06:06:23.230Z,176
2017-10-17T06:07:03.723Z,180
2017-10-17T06:07:44.322Z,184
2017-10-17T06:08:24.861Z,188
2017-10-17T06:09:05.379Z,196
2017-10-17T06:09:45.945Z,196
2017-10-17T06:10:26.574Z,208
2017-10-17T06:11:07.109Z,216
2017-10-17T06:11:47.652Z,220
2017-10-17T06:12:28.199Z,224
2017-10-17T06:13:08.715Z,232
2017-10-17T06:13:49.284Z,240
2017-10-17T06:14:29.804Z,240
2017-10-17T06:15:10.440Z,240
2017-10-17T06:15:50.991Z,256
2017-10-17T06:16:31.539Z,264
2017-10-17T06:17:12.165Z,264
2017-10-17T06:17:52.729Z,268
2017-10-17T06:18:33.265Z,272
2017-10-17T06:19:13.798Z,280
2017-10-17T06:19:54.366Z,284
2017-10-17T06:20:34.908Z,292
2017-10-17T06:21:15.451Z,300
2017-10-17T06:21:55.982Z,304
2017-10-17T06:22:36.562Z,320
2017-10-17T06:23:17.134Z,332
2017-10-17T06:23:57.682Z,336
2017-10-17T06:24:38.187Z,336
2017-10-17T06:25:18.702Z,340
2017-10-17T06:25:59.307Z,336
2017-10-17T06:26:39.872Z,344
2017-10-17T06:27:20.372Z,364
2017-10-17T06:28:00.969Z,364
2017-10-17T06:28:41.526Z,364
2017-10-17T06:29:22.077Z,376
2017-10-17T06:30:02.692Z,364
2017-10-17T06:30:43.228Z,372
2017-10-17T06:31:23.792Z,364
2017-10-17T06:32:04.344Z,380
2017-10-17T06:32:44.832Z,376
2017-10-17T06:33:25.417Z,384
2017-10-17T06:34:06.001Z,384
2017-10-17T06:34:46.557Z,396
2017-10-17T06:35:27.121Z,396
2017-10-17T06:36:07.621Z,400
2017-10-17T06:36:48.156Z,408
2017-10-17T06:37:28.700Z,416
2017-10-17T06:38:09.284Z,424
2017-10-17T06:38:49.823Z,432
2017-10-17T06:39:30.423Z,428
2017-10-17T06:40:10.960Z,448
2017-10-17T06:40:51.546Z,456
2017-10-17T06:41:32.086Z,456
2017-10-17T06:42:12.648Z,464
2017-10-17T06:42:53.214Z,464
2017-10-17T06:43:33.740Z,480
2017-10-17T06:44:14.300Z,484
2017-10-17T06:44:54.853Z,480
2017-10-17T06:45:35.388Z,480
2017-10-17T06:46:15.947Z,476
2017-10-17T06:46:56.504Z,472
2017-10-17T06:47:36.990Z,476
2017-10-17T06:48:17.533Z,484
2017-10-17T06:48:58.141Z,484
2017-10-17T06:49:38.644Z,484
2017-10-17T06:50:19.183Z,480
2017-10-17T06:50:59.731Z,484
2017-10-17T06:51:40.287Z,504
2017-10-17T06:52:20.807Z,504
2017-10-17T06:53:01.388Z,500
2017-10-17T06:53:41.955Z,504
2017-10-17T06:54:22.525Z,508
2017-10-17T06:55:03.018Z,516
2017-10-17T06:55:43.589Z,524
2017-10-17T06:56:24.193Z,532
2017-10-17T06:57:04.746Z,540
2017-10-17T06:57:45.265Z,556
2017-10-17T06:58:25.817Z,564
2017-10-17T06:59:06.406Z,576
2017-10-17T06:59:46.882Z,576
2017-10-17T07:00:27.413Z,592
2017-10-17T07:01:07.993Z,596
2017-10-17T07:01:48.592Z,600
2017-10-17T07:02:29.171Z,600
2017-10-17T07:03:09.667Z,604
2017-10-17T07:03:50.243Z,604
2017-10-17T07:04:30.770Z,604
2017-10-17T07:05:11.279Z,612
2017-10-17T07:05:51.814Z,612
2017-10-17T07:06:32.394Z,604
2017-10-17T07:07:12.943Z,612
2017-10-17T07:07:53.529Z,600
2017-10-17T07:08:34.067Z,608
2017-10-17T07:09:14.617Z,612
2017-10-17T07:09:55.123Z,584
2017-10-17T07:10:35.693Z,592
2017-10-17T07:11:16.316Z,592
2017-10-17T07:11:56.804Z,584
2017-10-17T07:12:37.366Z,596
2017-10-17T07:13:17.979Z,588
2017-10-17T07:13:58.406Z,600
2017-10-17T07:14:38.941Z,596
2017-10-17T07:15:19.516Z,612
2017-10-17T07:16:00.013Z,620
2017-10-17T07:16:40.600Z,604
2017-10-17T07:17:21.124Z,620
2017-10-17T07:18:01.695Z,624
2017-10-17T07:18:42.333Z,632
2017-10-17T07:19:22.890Z,628
2017-10-17T07:20:03.427Z,632
2017-10-17T07:20:43.997Z,612
2017-10-17T07:21:24.513Z,616
2017-10-17T07:22:05.034Z,604
2017-10-17T07:22:45.620Z,596
2017-10-17T07:23:26.156Z,604
2017-10-17T07:24:06.704Z,592
2017-10-17T07:24:47.358Z,604
2017-10-17T07:25:27.959Z,608
2017-10-17T07:26:08.480Z,608
2017-10-17T07:26:49.026Z,608
2017-10-17T07:27:29.623Z,608
2017-10-17T07:28:10.132Z,616
2017-10-17T07:28:50.699Z,620
2017-10-17T07:29:31.261Z,628
2017-10-17T07:30:11.763Z,616
2017-10-17T07:30:52.402Z,624
2017-10-17T07:31:33.526Z,612
2017-10-17T07:32:14.062Z,620
2017-10-17T07:32:54.571Z,624
2017-10-17T07:33:35.441Z,624
2017-10-17T07:34:15.964Z,628
2017-10-17T07:34:56.564Z,620
2017-10-17T07:35:37.060Z,624
2017-10-17T07:36:17.628Z,624
2017-10-17T07:36:58.135Z,620
2017-10-17T07:37:38.684Z,624
2017-10-17T07:38:19.190Z,624
2017-10-17T07:38:59.815Z,624
2017-10-17T07:39:40.376Z,620
2017-10-17T07:40:20.919Z,620
2017-10-17T07:41:01.480Z,620
2017-10-17T07:41:42.009Z,624
2017-10-17T07:42:22.514Z,624
2017-10-17T07:43:03.099Z,620
2017-10-17T07:43:43.682Z,624
2017-10-17T07:44:24.166Z,636
2017-10-17T07:45:04.752Z,628
2017-10-17T07:45:45.322Z,636
2017-10-17T07:46:25.933Z,640
2017-10-17T07:47:06.433Z,628
2017-10-17T07:47:46.971Z,616
2017-10-17T07:48:27.510Z,636
2017-10-17T07:49:08.022Z,616
2017-10-17T07:49:48.568Z,628
2017-10-17T07:50:29.139Z,628
2017-10-17T07:51:09.768Z,660
2017-10-17T07:51:50.291Z,640
2017-10-17T07:52:30.816Z,628
2017-10-17T07:53:11.400Z,620
2017-10-17T07:53:51.941Z,628
2017-10-17T07:54:32.498Z,620
2017-10-17T07:55:13.065Z,628
2017-10-17T07:55:53.560Z,628
2017-10-17T07:56:34.116Z,632
2017-10-17T07:57:14.713Z,628
2017-10-17T07:57:56.002Z,632
2017-10-17T07:58:35.853Z,632
2017-10-17T07:59:16.531Z,636
2017-10-17T07:59:57.430Z,636
2017-10-17T08:00:37.941Z,648
2017-10-17T08:01:18.483Z,632
2017-10-17T08:01:59.011Z,632
2017-10-17T08:02:39.591Z,632
2017-10-17T08:03:20.218Z,656
2017-10-17T08:04:00.749Z,640
2017-10-17T08:04:41.431Z,636
2017-10-17T08:05:21.973Z,652
2017-10-17T08:06:02.513Z,664
2017-10-17T08:06:43.075Z,660
2017-10-17T08:07:23.600Z,644
2017-10-17T08:08:04.181Z,636
2017-10-17T08:08:44.930Z,656
2017-10-17T08:09:25.467Z,648
2017-10-17T08:10:06.028Z,648
2017-10-17T08:10:46.594Z,652
2017-10-17T08:11:27.247Z,648
2017-10-17T08:12:07.856Z,656
2017-10-17T08:12:48.341Z,652
2017-10-17T08:13:28.839Z,652
2017-10-17T08:14:10.255Z,656
2017-10-17T08:14:50.748Z,656
2017-10-17T08:15:31.310Z,652
2017-10-17T08:16:11.884Z,660
2017-10-17T08:16:54.590Z,656
2017-10-17T08:17:33.270Z,656
2017-10-17T08:18:13.789Z,656
2017-10-17T08:18:54.389Z,660
2017-10-17T08:19:34.945Z,656
2017-10-17T08:20:15.503Z,660
2017-10-17T08:20:56.087Z,664
2017-10-17T08:21:36.632Z,656
2017-10-17T08:22:17.189Z,664
2017-10-17T08:22:57.818Z,660
2017-10-17T08:23:38.282Z,660
2017-10-17T08:24:18.835Z,660
2017-10-17T08:24:59.403Z,664
2017-10-17T08:25:39.932Z,664
2017-10-17T08:26:20.547Z,668
2017-10-17T08:27:01.070Z,664
2017-10-17T08:27:41.596Z,660
2017-10-17T08:28:22.132Z,664
2017-10-17T08:29:02.767Z,668
2017-10-17T08:29:43.264Z,668
2017-10-17T08:30:23.858Z,668
2017-10-17T08:31:04.401Z,668
2017-10-17T08:31:44.943Z,668
2017-10-17T08:32:25.486Z,680
2017-10-17T08:33:06.080Z,672
2017-10-17T08:33:46.647Z,684
2017-10-17T08:34:27.154Z,672
2017-10-17T08:35:07.781Z,680
2017-10-17T08:35:48.248Z,672
2017-10-17T08:36:28.786Z,680
2017-10-17T08:37:09.343Z,696
2017-10-17T08:37:49.841Z,676
2017-10-17T08:38:30.388Z,684
2017-10-17T08:39:10.954Z,696
2017-10-17T08:39:51.558Z,680
2017-10-17T08:40:32.031Z,684
2017-10-17T08:41:12.593Z,680
2017-10-17T08:41:53.323Z,688
2017-10-17T08:42:33.881Z,692
2017-10-17T08:43:14.416Z,684
2017-10-17T08:43:54.965Z,692
2017-10-17T08:44:35.508Z,696
2017-10-17T08:45:16.262Z,692
2017-10-17T08:45:56.917Z,696
2017-10-17T08:46:37.446Z,700
2017-10-17T08:47:18.026Z,696
2017-10-17T08:47:58.554Z,712
2017-10-17T08:48:39.192Z,712
2017-10-17T08:49:19.684Z,700
2017-10-17T08:50:00.213Z,704
2017-10-17T08:50:40.790Z,712
2017-10-17T08:51:21.378Z,712
2017-10-17T08:52:01.999Z,708
2017-10-17T08:52:42.495Z,712
2017-10-17T08:53:23.044Z,716
2017-10-17T08:54:03.529Z,700
2017-10-17T08:54:44.111Z,728
2017-10-17T08:55:24.662Z,712
2017-10-17T08:56:05.215Z,704
2017-10-17T08:56:45.741Z,724
2017-10-17T08:57:26.264Z,724
2017-10-17T08:58:06.776Z,712
2017-10-17T08:58:47.346Z,720
2017-10-17T08:59:27.970Z,724
2017-10-17T09:00:08.489Z,724
2017-10-17T09:00:49.063Z,720
2017-10-17T09:01:29.612Z,728
2017-10-17T09:02:10.152Z,724
2017-10-17T09:02:50.715Z,728
2017-10-17T09:03:31.306Z,736
2017-10-17T09:04:11.866Z,720
2017-10-17T09:04:52.363Z,732
2017-10-17T09:05:32.943Z,748
2017-10-17T09:06:13.479Z,752
2017-10-17T09:06:54.012Z,748
2017-10-17T09:07:35.095Z,736
2017-10-17T09:08:15.704Z,752
2017-10-17T09:08:56.224Z,768
2017-10-17T09:09:36.791Z,768
2017-10-17T09:10:17.433Z,780
2017-10-17T09:10:58.195Z,784
2017-10-17T09:11:38.883Z,792
2017-10-17T09:12:19.793Z,808
2017-10-17T09:13:00.321Z,800
2017-10-17T09:13:40.926Z,812
2017-10-17T09:14:21.536Z,796
2017-10-17T09:15:02.223Z,808
2017-10-17T09:15:43.010Z,800
2017-10-17T09:16:23.610Z,800
2017-10-17T09:17:04.286Z,812
2017-10-17T09:17:44.938Z,808
2017-10-17T09:18:25.475Z,808
2017-10-17T09:19:06.324Z,812
2017-10-17T09:19:46.617Z,816
2017-10-17T09:20:27.171Z,816
2017-10-17T09:21:07.724Z,816
2017-10-17T09:21:48.360Z,828
2017-10-17T09:22:28.878Z,824
2017-10-17T09:23:09.450Z,824
2017-10-17T09:23:49.997Z,836
2017-10-17T09:24:30.563Z,836
2017-10-17T09:25:11.515Z,840
2017-10-17T09:25:53.173Z,844
2017-10-17T09:26:35.454Z,864
2017-10-17T09:27:16.123Z,868
2017-10-17T09:27:56.688Z,860
2017-10-17T09:28:38.879Z,880
2017-10-17T09:29:19.407Z,864
2017-10-17T09:29:59.978Z,868
2017-10-17T09:30:40.422Z,876
2017-10-17T09:31:21.023Z,896
2017-10-17T09:32:01.517Z,888
2017-10-17T09:32:42.126Z,900
2017-10-17T09:33:22.690Z,904
2017-10-17T09:34:03.276Z,896
2017-10-17T09:34:43.810Z,884
2017-10-17T09:35:24.390Z,892
2017-10-17T09:36:04.899Z,908
2017-10-17T09:36:45.492Z,896
2017-10-17T09:37:26.100Z,900
2017-10-17T09:38:06.663Z,908
2017-10-17T09:38:47.261Z,920
2017-10-17T09:39:27.795Z,912
2017-10-17T09:40:08.428Z,920
2017-10-17T09:40:48.969Z,912
2017-10-17T09:41:29.463Z,928
2017-10-17T09:42:09.987Z,928